Time;durP1;ratioP1;P1;durP2;ratioP2;P2;SDS_P1;SDS_P2;PMS_P1;PMS_P2;Temp;Humidity;BMP_temperature;BMP_pressure;BME280_temperature;BME280_humidity;BME280_pressure;Samples;Min_cycle;Max_cycle;Signal;HPM_P1;HPM_P2
2021/06/15 00:00:51;;;;;;;9.60;1.85;;;;;;;;;;5151857;27;20105;-72
2021/06/15 00:03:20;;;;;;;11.43;1.60;;;;;;;;;;5145225;27;20057;-73
2021/06/15 00:05:46;;;;;;;8.43;1.70;;;;;;;;;;5133415;27;20039;-72
2021/06/15 00:08:13;;;;;;;12.65;1.63;;;;;;;;;;5150892;27;20100;-72
2021/06/15 00:10:45;;;;;;;14.20;1.55;;;;;;;;;;5150898;27;20035;-72
2021/06/15 00:13:11;;;;;;;12.50;1.65;;;;;;;;;;5150108;27;20031;-72
2021/06/15 00:15:40;;;;;;;8.95;1.50;;;;;;;;;;5149838;27;20037;-72
2021/06/15 00:18:07;;;;;;;12.38;1.80;;;;;;;;;;5151094;27;20113;-72
2021/06/15 00:20:34;;;;;;;9.90;1.67;;;;;;;;;;5150664;27;20134;-73
2021/06/15 00:23:00;;;;;;;14.85;2.13;;;;;;;;;;5156146;27;20050;-72
2021/06/15 00:25:26;;;;;;;12.45;1.70;;;;;;;;;;5140687;27;20504;-74
2021/06/15 00:27:53;;;;;;;11.57;2.03;;;;;;;;;;5152010;27;20039;-72
2021/06/15 00:30:20;;;;;;;12.05;1.90;;;;;;;;;;5155041;27;20525;-72
2021/06/15 00:32:55;;;;;;;10.40;1.80;;;;;;;;;;5155888;27;20118;-73
2021/06/15 00:35:41;;;;;;;13.20;1.55;;;;;;;;;;5147149;27;20056;-72
2021/06/15 00:38:10;;;;;;;11.73;1.75;;;;;;;;;;5149370;27;20133;-72
2021/06/15 00:40:43;;;;;;;16.88;2.13;;;;;;;;;;5135201;27;20100;-73
2021/06/15 00:43:09;;;;;;;14.20;2.20;;;;;;;;;;5155215;27;20042;-72
2021/06/15 00:45:35;;;;;;;13.15;1.65;;;;;;;;;;5153799;27;20042;-73
2021/06/15 00:48:01;;;;;;;14.45;2.53;;;;;;;;;;5146998;27;20039;-72
2021/06/15 00:50:28;;;;;;;9.15;1.90;;;;;;;;;;5154784;27;20397;-73
2021/06/15 00:52:54;;;;;;;14.60;2.28;;;;;;;;;;5145543;27;20035;-72
2021/06/15 00:55:24;;;;;;;11.90;2.03;;;;;;;;;;5145187;27;20063;-73
2021/06/15 00:57:51;;;;;;;13.25;1.75;;;;;;;;;;5145328;27;20058;-73
2021/06/15 01:00:18;;;;;;;15.95;2.13;;;;;;;;;;5152339;27;20050;-72
2021/06/15 01:02:45;;;;;;;11.95;1.65;;;;;;;;;;5153686;27;20039;-72
2021/06/15 01:11:04;;;;;;;18.70;3.25;;;;;;;;;;5650784;22;20056;-72
2021/06/15 01:13:39;;;;;;;10.02;2.20;;;;;;;;;;5054113;28;20130;-72
2021/06/15 01:16:13;;;;;;;17.38;2.40;;;;;;;;;;5076792;28;20033;-72
2021/06/15 01:18:42;;;;;;;10.57;2.08;;;;;;;;;;5073718;28;20028;-72
2021/06/15 01:21:10;;;;;;;17.23;2.60;;;;;;;;;;5077420;28;20044;-72
2021/06/15 01:23:49;;;;;;;16.98;2.78;;;;;;;;;;5087458;28;20118;-72
2021/06/15 01:26:33;;;;;;;10.25;2.05;;;;;;;;;;5079202;28;20048;-72
2021/06/15 01:29:01;;;;;;;10.38;2.08;;;;;;;;;;5073643;28;20044;-72
2021/06/15 01:31:32;;;;;;;14.50;2.65;;;;;;;;;;5068672;28;20090;-72
2021/06/15 01:34:07;;;;;;;11.98;2.47;;;;;;;;;;5066834;28;20040;-72
2021/06/15 01:36:36;;;;;;;13.13;2.38;;;;;;;;;;5062252;28;20174;-72
2021/06/15 01:39:06;;;;;;;13.05;2.33;;;;;;;;;;5058080;28;20041;-72
2021/06/15 01:41:34;;;;;;;14.35;2.17;;;;;;;;;;5053889;28;20403;-71
2021/06/15 01:44:09;;;;;;;18.25;2.78;;;;;;;;;;5066083;28;20043;-72
2021/06/15 01:46:39;;;;;;;15.82;2.45;;;;;;;;;;5071552;28;20070;-72
2021/06/15 01:49:26;;;;;;;11.80;1.85;;;;;;;;;;5053778;28;20134;-72
2021/06/15 01:51:54;;;;;;;14.27;2.13;;;;;;;;;;5078459;28;20039;-72
2021/06/15 01:54:23;;;;;;;12.50;2.10;;;;;;;;;;5068224;28;20190;-73
2021/06/15 01:56:49;;;;;;;11.32;2.22;;;;;;;;;;5062801;28;20097;-72
2021/06/15 01:59:18;;;;;;;12.15;2.20;;;;;;;;;;5075640;28;20051;-72
2021/06/15 02:01:46;;;;;;;13.40;2.40;;;;;;;;;;5073311;28;20044;-72
2021/06/15 02:04:13;;;;;;;14.82;2.55;;;;;;;;;;5071825;28;20032;-72
2021/06/15 02:06:42;;;;;;;16.05;2.67;;;;;;;;;;5068680;28;20075;-72
2021/06/15 02:09:08;;;;;;;12.80;2.28;;;;;;;;;;5073491;28;20063;-72
2021/06/15 02:11:36;;;;;;;14.05;2.25;;;;;;;;;;5066835;28;20511;-72
2021/06/15 02:14:26;;;;;;;12.95;2.53;;;;;;;;;;5057921;28;20056;-72
2021/06/15 02:17:01;;;;;;;11.80;2.05;;;;;;;;;;5076494;28;20107;-72
2021/06/15 02:19:31;;;;;;;11.02;2.20;;;;;;;;;;5073691;28;20040;-72
2021/06/15 02:22:02;;;;;;;11.57;2.47;;;;;;;;;;5073461;28;20037;-72
2021/06/15 02:24:54;;;;;;;15.15;2.05;;;;;;;;;;5059858;28;20048;-72
2021/06/15 02:27:41;;;;;;;13.43;3.08;;;;;;;;;;5067426;28;20138;-72
2021/06/15 02:30:08;;;;;;;13.45;2.38;;;;;;;;;;5070993;28;20098;-72
2021/06/15 02:32:36;;;;;;;14.25;2.42;;;;;;;;;;5076881;28;20040;-72
2021/06/15 02:35:05;;;;;;;15.18;2.90;;;;;;;;;;5060544;28;20050;-73
2021/06/15 02:37:33;;;;;;;16.50;3.10;;;;;;;;;;5073623;28;20398;-72
2021/06/15 02:40:00;;;;;;;14.82;2.88;;;;;;;;;;5091193;28;20089;-72
2021/06/15 02:42:27;;;;;;;15.23;2.55;;;;;;;;;;5064853;28;20124;-72
2021/06/15 02:44:56;;;;;;;15.45;3.15;;;;;;;;;;5070730;28;20090;-72
2021/06/15 02:47:22;;;;;;;14.98;2.65;;;;;;;;;;5088160;28;20497;-72
2021/06/15 02:49:54;;;;;;;15.02;2.80;;;;;;;;;;5071263;28;20051;-72
2021/06/15 02:52:34;;;;;;;13.20;2.80;;;;;;;;;;5076476;28;20462;-72
2021/06/15 02:55:02;;;;;;;14.65;2.80;;;;;;;;;;5065898;28;20094;-72
2021/06/15 02:57:28;;;;;;;18.20;3.33;;;;;;;;;;5062467;28;20048;-73
2021/06/15 02:59:55;;;;;;;19.40;3.13;;;;;;;;;;5072618;28;20056;-72
2021/06/15 03:02:22;;;;;;;16.48;2.83;;;;;;;;;;5073527;28;20474;-72
2021/06/15 03:04:49;;;;;;;11.23;2.53;;;;;;;;;;5083908;28;20047;-72
2021/06/15 03:07:16;;;;;;;14.98;3.08;;;;;;;;;;5066558;28;20125;-72
2021/06/15 03:09:42;;;;;;;14.38;2.67;;;;;;;;;;5072906;28;20044;-73
2021/06/15 03:12:16;;;;;;;11.75;2.40;;;;;;;;;;5064578;28;20455;-72
2021/06/15 03:14:44;;;;;;;12.30;2.85;;;;;;;;;;5069175;28;20048;-72
2021/06/15 03:17:11;;;;;;;13.68;2.50;;;;;;;;;;5058436;28;20502;-72
2021/06/15 03:19:52;;;;;;;19.58;3.13;;;;;;;;;;5071697;28;20052;-72
2021/06/15 03:22:30;;;;;;;14.77;2.50;;;;;;;;;;5046994;28;20051;-72
2021/06/15 03:24:59;;;;;;;13.85;2.47;;;;;;;;;;5053130;28;20467;-72
2021/06/15 03:27:38;;;;;;;9.80;2.60;;;;;;;;;;5058221;28;20049;-72
2021/06/15 03:30:24;;;;;;;16.08;2.95;;;;;;;;;;5058784;28;20094;-72
2021/06/15 03:33:14;;;;;;;14.93;2.60;;;;;;;;;;5047703;28;20040;-72
2021/06/15 03:35:41;;;;;;;13.32;2.58;;;;;;;;;;5068241;28;20047;-72
2021/06/15 03:38:08;;;;;;;13.48;2.67;;;;;;;;;;5076849;28;20037;-72
2021/06/15 03:40:40;;;;;;;14.23;2.80;;;;;;;;;;5089877;28;20051;-72
2021/06/15 03:43:06;;;;;;;16.02;2.70;;;;;;;;;;5071716;28;20111;-72
2021/06/15 03:45:33;;;;;;;15.75;2.85;;;;;;;;;;5090440;28;20044;-72
2021/06/15 03:48:00;;;;;;;16.15;3.13;;;;;;;;;;5071724;28;20041;-72
2021/06/15 03:50:26;;;;;;;11.43;2.70;;;;;;;;;;5082958;28;20371;-72
2021/06/15 03:52:55;;;;;;;17.55;2.75;;;;;;;;;;5058545;28;20041;-72
2021/06/15 03:55:23;;;;;;;13.13;2.70;;;;;;;;;;5052054;28;20037;-72
2021/06/15 03:57:49;;;;;;;17.45;3.55;;;;;;;;;;5066458;28;20043;-72
2021/06/15 04:00:17;;;;;;;16.50;3.47;;;;;;;;;;5062244;28;20044;-72
2021/06/15 04:02:45;;;;;;;12.50;2.65;;;;;;;;;;5073305;28;20387;-72
2021/06/15 04:05:13;;;;;;;16.95;2.83;;;;;;;;;;5077373;28;20040;-72
2021/06/15 04:07:41;;;;;;;14.63;2.20;;;;;;;;;;5089676;28;20069;-73
2021/06/15 04:10:08;;;;;;;12.73;2.78;;;;;;;;;;5060872;28;20379;-72
2021/06/15 04:12:35;;;;;;;16.33;3.03;;;;;;;;;;5072884;28;20075;-72
2021/06/15 04:15:02;;;;;;;17.83;3.03;;;;;;;;;;5082891;28;20048;-72
2021/06/15 04:17:30;;;;;;;14.73;2.72;;;;;;;;;;5092842;28;20048;-73
2021/06/15 04:19:57;;;;;;;15.98;2.53;;;;;;;;;;5076007;28;20482;-72
2021/06/15 04:22:28;;;;;;;12.23;2.63;;;;;;;;;;5066182;28;20518;-72
2021/06/15 04:24:56;;;;;;;16.83;3.47;;;;;;;;;;5058400;28;20036;-72
2021/06/15 04:27:25;;;;;;;15.50;2.60;;;;;;;;;;5076750;28;20052;-72
2021/06/15 04:29:55;;;;;;;15.90;3.08;;;;;;;;;;5083030;28;20093;-72
2021/06/15 04:32:32;;;;;;;15.02;3.42;;;;;;;;;;5059976;28;20442;-72
2021/06/15 04:35:01;;;;;;;13.18;2.80;;;;;;;;;;5055076;28;20487;-72
2021/06/15 04:37:43;;;;;;;23.27;3.83;;;;;;;;;;5070238;28;20425;-72
2021/06/15 04:40:19;;;;;;;20.00;2.92;;;;;;;;;;5072872;28;20040;-72
2021/06/15 04:42:49;;;;;;;12.70;2.42;;;;;;;;;;5064305;28;20044;-73
2021/06/15 04:45:39;;;;;;;15.70;3.42;;;;;;;;;;5068862;28;20082;-72
2021/06/15 04:48:07;;;;;;;9.48;2.33;;;;;;;;;;5063624;28;20049;-72
2021/06/15 04:50:34;;;;;;;12.82;2.50;;;;;;;;;;5059756;28;20540;-72
2021/06/15 04:53:03;;;;;;;16.75;2.80;;;;;;;;;;5068362;28;20044;-72
2021/06/15 04:55:32;;;;;;;13.73;3.00;;;;;;;;;;5074308;28;20048;-71
2021/06/15 04:57:58;;;;;;;13.73;2.88;;;;;;;;;;5056758;28;20040;-73
2021/06/15 05:00:26;;;;;;;15.77;3.03;;;;;;;;;;5057774;28;20098;-71
2021/06/15 05:03:01;;;;;;;22.27;3.08;;;;;;;;;;5057186;28;20052;-73
2021/06/15 05:05:28;;;;;;;9.63;2.45;;;;;;;;;;5069903;28;20040;-71
2021/06/15 05:08:03;;;;;;;16.42;2.85;;;;;;;;;;5070499;28;20059;-71
2021/06/15 05:10:37;;;;;;;13.75;2.63;;;;;;;;;;5073584;28;20131;-72
2021/06/15 05:13:16;;;;;;;12.32;2.20;;;;;;;;;;5068916;28;20068;-72
2021/06/15 05:15:44;;;;;;;9.90;2.80;;;;;;;;;;5073501;28;20039;-72
2021/06/15 05:18:14;;;;;;;17.40;3.08;;;;;;;;;;5073012;28;20060;-72
2021/06/15 05:20:42;;;;;;;13.48;2.65;;;;;;;;;;5052670;28;20555;-72
2021/06/15 05:23:14;;;;;;;10.15;2.58;;;;;;;;;;5053985;28;20140;-72
2021/06/15 05:25:42;;;;;;;12.73;2.63;;;;;;;;;;5071470;28;20046;-72
2021/06/15 05:28:08;;;;;;;12.18;2.63;;;;;;;;;;5073926;28;20497;-72
2021/06/15 05:30:34;;;;;;;11.48;2.40;;;;;;;;;;5062251;28;20372;-72
2021/06/15 05:33:00;;;;;;;13.07;2.35;;;;;;;;;;5055647;28;20041;-72
2021/06/15 05:35:26;;;;;;;13.40;3.47;;;;;;;;;;5072839;28;20052;-72
2021/06/15 05:37:53;;;;;;;11.13;2.42;;;;;;;;;;5071922;28;20113;-72
2021/06/15 05:40:19;;;;;;;14.50;2.75;;;;;;;;;;5069381;28;20044;-73
2021/06/15 05:42:45;;;;;;;13.50;2.50;;;;;;;;;;5071553;28;20040;-73
2021/06/15 05:45:12;;;;;;;15.20;2.88;;;;;;;;;;5057325;28;20316;-75
2021/06/15 05:47:38;;;;;;;8.82;2.08;;;;;;;;;;5073822;28;20123;-74
2021/06/15 05:50:06;;;;;;;14.68;2.55;;;;;;;;;;5066186;28;20041;-74
2021/06/15 05:52:33;;;;;;;13.75;2.75;;;;;;;;;;5056735;28;20062;-76
2021/06/15 05:55:00;;;;;;;13.57;2.47;;;;;;;;;;5061368;28;20048;-72
2021/06/15 05:57:30;;;;;;;16.17;2.58;;;;;;;;;;5047504;28;20048;-73
2021/06/15 05:59:56;;;;;;;11.93;2.25;;;;;;;;;;5063893;28;20178;-72
2021/06/15 06:02:22;;;;;;;17.20;2.72;;;;;;;;;;5063240;28;20077;-72
2021/06/15 06:05:02;;;;;;;12.48;2.55;;;;;;;;;;5064119;28;20040;-72
2021/06/15 06:10:16;;;;;;;14.65;2.63;;;;;;;;;;5063214;28;20075;-72
2021/06/15 06:12:42;;;;;;;17.23;3.00;;;;;;;;;;5071272;28;20036;-72
2021/06/15 06:15:11;;;;;;;11.57;2.15;;;;;;;;;;5073086;28;20036;-72
2021/06/15 06:17:39;;;;;;;15.93;3.05;;;;;;;;;;5059001;28;20036;-72
2021/06/15 06:20:06;;;;;;;19.95;3.22;;;;;;;;;;5071401;28;20044;-72
2021/06/15 06:22:32;;;;;;;11.10;2.30;;;;;;;;;;5062894;28;20064;-73
2021/06/15 06:25:02;;;;;;;10.57;2.45;;;;;;;;;;5061477;28;20139;-73
2021/06/15 06:27:28;;;;;;;12.27;2.85;;;;;;;;;;5062920;28;20054;-73
2021/06/15 06:29:55;;;;;;;14.50;2.10;;;;;;;;;;5046594;28;20090;-72
2021/06/15 06:32:21;;;;;;;13.65;2.33;;;;;;;;;;5061852;28;20536;-73
2021/06/15 06:34:49;;;;;;;10.55;2.42;;;;;;;;;;5063262;28;20407;-73
2021/06/15 06:37:15;;;;;;;13.77;2.53;;;;;;;;;;5060434;28;20077;-73
2021/06/15 06:39:42;;;;;;;13.45;2.63;;;;;;;;;;5054585;28;20403;-72
2021/06/15 06:42:08;;;;;;;13.38;2.85;;;;;;;;;;5063886;28;20036;-73
2021/06/15 06:44:34;;;;;;;12.73;2.90;;;;;;;;;;5069562;28;20119;-73
2021/06/15 06:47:00;;;;;;;13.68;3.08;;;;;;;;;;5066105;28;20065;-72
2021/06/15 06:49:27;;;;;;;11.18;2.83;;;;;;;;;;5062848;28;20036;-72
2021/06/15 06:51:53;;;;;;;10.98;2.10;;;;;;;;;;5057306;28;20167;-72
2021/06/15 06:54:19;;;;;;;13.15;2.58;;;;;;;;;;5059260;28;20068;-73
2021/06/15 06:56:46;;;;;;;15.23;2.60;;;;;;;;;;5062018;28;20090;-72
2021/06/15 06:59:12;;;;;;;14.35;2.63;;;;;;;;;;5064007;28;20037;-72
2021/06/15 07:01:38;;;;;;;12.73;2.70;;;;;;;;;;5062807;28;20111;-72
2021/06/15 07:04:04;;;;;;;10.85;2.80;;;;;;;;;;5061026;28;20040;-72
2021/06/15 07:06:30;;;;;;;;;;;;;;;;;;5062780;28;20093;-71
2021/06/15 07:08:57;;;;;;;;;;;;;;;;;;5063407;28;20421;-71
2021/06/15 07:11:23;;;;;;;;;;;;;;;;;;5044326;28;20436;-72
2021/06/15 07:13:49;;;;;;;;;;;;;;;;;;5062953;28;19932;-71
2021/06/15 07:16:17;;;;;;;;;;;;;;;;;;5065887;28;19916;-72
2021/06/15 07:18:43;;;;;;;;;;;;;;;;;;5062864;28;19928;-72
2021/06/15 07:21:09;;;;;;;;;;;;;;;;;;5062402;28;19927;-71
2021/06/15 07:23:35;;;;;;;;;;;;;;;;;;5062609;28;20335;-72
2021/06/15 07:26:02;;;;;;;;;;;;;;;;;;5062391;28;19961;-72
2021/06/15 07:28:48;;;;;;;;;;;;;;;;;;5047747;28;20011;-72
2021/06/15 07:31:24;;;;;;;;;;;;;;;;;;5061743;28;19920;-71
2021/06/15 07:34:10;;;;;;;;;;;;;;;;;;5049283;28;19961;-71
2021/06/15 07:36:56;;;;;;;;;;;;;;;;;;5046694;28;19924;-71
2021/06/15 07:39:42;;;;;;;;;;;;;;;;;;5048008;28;19931;-71
2021/06/15 07:42:29;;;;;;;;;;;;;;;;;;5047713;28;20365;-72
2021/06/15 07:45:15;;;;;;;;;;;;;;;;;;5046966;28;19920;-72
2021/06/15 07:48:01;;;;;;;;;;;;;;;;;;5053506;28;19920;-73
2021/06/15 07:50:47;;;;;;;;;;;;;;;;;;5047725;28;19935;-71
2021/06/15 07:53:33;;;;;;;;;;;;;;;;;;5037838;28;19924;-72
2021/06/15 07:56:19;;;;;;;;;;;;;;;;;;5046690;28;19956;-73
2021/06/15 07:58:45;;;;;;;;;;;;;;;;;;5061568;28;19928;-72
2021/06/15 08:01:31;;;;;;;;;;;;;;;;;;5045991;28;19917;-72
2021/06/15 08:03:57;;;;;;;;;;;;;;;;;;5059843;28;19916;-74
2021/06/15 08:06:43;;;;;;;;;;;;;;;;;;5031593;28;19916;-72
2021/06/15 08:09:10;;;;;;;;;;;;;;;;;;5058945;28;19923;-73
2021/06/15 08:11:56;;;;;;;;;;;;;;;;;;5054966;28;20296;-72
2021/06/15 08:14:22;;;;;;;;;;;;;;;;;;5069626;28;19916;-72
2021/06/15 08:17:08;;;;;;;;;;;;;;;;;;5053182;28;19946;-72
2021/06/15 08:19:35;;;;;;;10.77;2.28;;;;;;;;;;5052023;28;19961;-72
2021/06/15 08:22:01;;;;;;;12.27;2.67;;;;;;;;;;5052664;28;20047;-72
2021/06/15 08:24:47;;;;;;;10.77;2.10;;;;;;;;;;5056283;28;20041;-72
2021/06/15 08:27:15;;;;;;;7.60;2.20;;;;;;;;;;5069826;28;20044;-72
2021/06/15 08:29:41;;;;;;;12.73;2.50;;;;;;;;;;5069958;28;20054;-72
2021/06/15 08:32:27;;;;;;;6.07;1.80;;;;;;;;;;5055781;28;20045;-72
2021/06/15 08:34:54;;;;;;;10.65;2.42;;;;;;;;;;5071207;28;20518;-72
2021/06/15 08:37:20;;;;;;;7.55;2.05;;;;;;;;;;5070509;28;20042;-72
2021/06/15 08:40:07;;;;;;;7.88;2.08;;;;;;;;;;5068989;28;20036;-72
2021/06/15 08:42:33;;;;;;;9.07;2.05;;;;;;;;;;5067376;28;20074;-72
2021/06/15 08:45:00;;;;;;;9.20;2.00;;;;;;;;;;5074584;28;20055;-72
2021/06/15 08:47:27;;;;;;;9.80;2.83;;;;;;;;;;5073650;28;20044;-72
2021/06/15 08:49:53;;;;;;;6.80;2.05;;;;;;;;;;5074583;28;20048;-71
2021/06/15 08:52:26;;;;;;;8.18;1.75;;;;;;;;;;5074067;28;20052;-72
2021/06/15 08:54:52;;;;;;;8.32;2.28;;;;;;;;;;5074545;28;20041;-71
2021/06/15 08:57:18;;;;;;;8.25;2.05;;;;;;;;;;5055915;28;20036;-72
2021/06/15 08:59:44;;;;;;;8.55;2.10;;;;;;;;;;5074350;28;20478;-71
2021/06/15 09:02:10;;;;;;;5.47;1.40;;;;;;;;;;5074429;28;20067;-71
2021/06/15 09:04:37;;;;;;;9.60;1.67;;;;;;;;;;5072514;28;20044;-71
2021/06/15 09:07:04;;;;;;;10.70;2.03;;;;;;;;;;5075182;28;20032;-72
2021/06/15 09:09:41;;;;;;;5.97;1.67;;;;;;;;;;5073080;28;20486;-71
2021/06/15 09:12:09;;;;;;;7.57;1.60;;;;;;;;;;5072157;28;20048;-72
2021/06/15 09:14:39;;;;;;;9.23;2.10;;;;;;;;;;5073038;28;20048;-71
2021/06/15 09:17:05;;;;;;;6.95;1.55;;;;;;;;;;5056099;28;20116;-72
2021/06/15 09:19:36;;;;;;;6.25;1.80;;;;;;;;;;5073556;28;20052;-72
2021/06/15 09:22:02;;;;;;;8.43;1.98;;;;;;;;;;5074313;28;20050;-72
2021/06/15 09:24:28;;;;;;;9.48;1.85;;;;;;;;;;5073267;28;20033;-72
2021/06/15 09:27:05;;;;;;;6.85;1.88;;;;;;;;;;5071443;28;20041;-72
2021/06/15 09:29:40;;;;;;;8.35;2.00;;;;;;;;;;5073194;28;20040;-72
2021/06/15 09:32:08;;;;;;;8.77;1.85;;;;;;;;;;5068016;28;20040;-72
2021/06/15 09:34:34;;;;;;;5.18;1.40;;;;;;;;;;5072777;28;20041;-72
2021/06/15 09:37:04;;;;;;;9.15;1.90;;;;;;;;;;5072126;28;20060;-72
2021/06/15 09:39:31;;;;;;;9.98;1.98;;;;;;;;;;5069483;28;20047;-72
2021/06/15 09:41:58;;;;;;;7.07;1.42;;;;;;;;;;5072362;28;20376;-72
2021/06/15 09:44:26;;;;;;;11.90;2.05;;;;;;;;;;5071860;28;20085;-72
2021/06/15 09:46:54;;;;;;;9.88;2.15;;;;;;;;;;5076240;28;20470;-72
2021/06/15 09:49:38;;;;;;;9.90;2.10;;;;;;;;;;5072436;28;20048;-72
2021/06/15 09:52:08;;;;;;;8.23;1.73;;;;;;;;;;5073660;28;20072;-71
2021/06/15 09:54:53;;;;;;;9.80;1.83;;;;;;;;;;5070842;28;20040;-72
2021/06/15 09:57:23;;;;;;;8.05;1.60;;;;;;;;;;5069802;28;20487;-71
2021/06/15 09:59:58;;;;;;;9.82;1.73;;;;;;;;;;5070862;28;20471;-72
2021/06/15 10:02:25;;;;;;;12.60;1.98;;;;;;;;;;5071050;28;20044;-72
2021/06/15 10:04:51;;;;;;;8.07;1.90;;;;;;;;;;5071673;28;20068;-72
2021/06/15 10:07:28;;;;;;;6.10;1.65;;;;;;;;;;5072105;28;20502;-71
2021/06/15 10:09:55;;;;;;;10.73;2.00;;;;;;;;;;5072219;28;20119;-72
2021/06/15 10:12:22;;;;;;;8.00;2.10;;;;;;;;;;5071191;28;20052;-72
2021/06/15 10:14:49;;;;;;;8.10;2.10;;;;;;;;;;5069872;28;20083;-72
2021/06/15 10:17:15;;;;;;;5.65;1.70;;;;;;;;;;5073484;28;20102;-72
2021/06/15 10:19:42;;;;;;;6.88;1.67;;;;;;;;;;5071451;28;20045;-71
2021/06/15 10:22:08;;;;;;;7.60;1.75;;;;;;;;;;5069505;28;20080;-72
2021/06/15 10:24:35;;;;;;;10.60;1.92;;;;;;;;;;5053321;28;20127;-72
2021/06/15 10:27:02;;;;;;;8.73;1.90;;;;;;;;;;5072654;28;20075;-72
2021/06/15 10:29:28;;;;;;;5.18;1.92;;;;;;;;;;5071175;28;20090;-73
2021/06/15 10:31:54;;;;;;;6.63;1.35;;;;;;;;;;5071474;28;20047;-72
2021/06/15 10:34:39;;;;;;;7.88;1.67;;;;;;;;;;5071390;28;20040;-73
2021/06/15 10:37:05;;;;;;;8.23;1.60;;;;;;;;;;5053582;28;20087;-72
2021/06/15 10:39:40;;;;;;;4.88;1.40;;;;;;;;;;5053027;28;20115;-72
2021/06/15 10:42:16;;;;;;;7.40;2.00;;;;;;;;;;5068642;28;20128;-73
2021/06/15 10:45:05;;;;;;;7.50;1.52;;;;;;;;;;5071265;28;20505;-73
2021/06/15 10:47:31;;;;;;;5.47;1.50;;;;;;;;;;5070043;28;20032;-73
2021/06/15 10:50:01;;;;;;;6.95;1.70;;;;;;;;;;5051116;28;20448;-74
2021/06/15 10:52:47;;;;;;;7.95;2.03;;;;;;;;;;5053074;28;20039;-74
2021/06/15 10:55:39;;;;;;;6.05;1.88;;;;;;;;;;5054400;28;20451;-73
2021/06/15 10:58:05;;;;;;;5.70;2.10;;;;;;;;;;5054730;28;20043;-73
2021/06/15 11:00:31;;;;;;;6.13;1.63;;;;;;;;;;5069258;28;20450;-71
2021/06/15 11:03:16;;;;;;;8.10;1.52;;;;;;;;;;5071116;28;20048;-75
2021/06/15 11:05:43;;;;;;;5.68;1.38;;;;;;;;;;5049464;28;20055;-74
2021/06/15 11:08:13;;;;;;;7.32;1.80;;;;;;;;;;5064728;28;20045;-71
2021/06/15 11:10:44;;;;;;;6.28;1.60;;;;;;;;;;5071456;28;20139;-73
2021/06/15 11:13:11;;;;;;;6.15;1.50;;;;;;;;;;5066112;28;20040;-73
2021/06/15 11:15:55;;;;;;;7.28;1.80;;;;;;;;;;5071684;28;20044;-72
2021/06/15 11:18:21;;;;;;;8.63;1.67;;;;;;;;;;5071945;28;20052;-72
2021/06/15 11:20:48;;;;;;;4.97;1.42;;;;;;;;;;5069696;28;20079;-72
2021/06/15 11:23:25;;;;;;;6.45;1.35;;;;;;;;;;5070954;28;20462;-72
2021/06/15 11:25:55;;;;;;;8.02;1.50;;;;;;;;;;5066340;28;20517;-72
2021/06/15 11:28:41;;;;;;;7.45;1.40;;;;;;;;;;5071584;28;20097;-71
2021/06/15 11:31:25;;;;;;;9.60;1.58;;;;;;;;;;5068828;28;20040;-72
2021/06/15 11:34:03;;;;;;;7.57;1.50;;;;;;;;;;5070861;28;20048;-72
2021/06/15 11:36:40;;;;;;;6.43;1.60;;;;;;;;;;5067267;28;20041;-72
2021/06/15 11:39:27;;;;;;;5.05;1.58;;;;;;;;;;5071076;28;20036;-72
2021/06/15 11:42:05;;;;;;;6.32;1.50;;;;;;;;;;5063707;28;20053;-72
2021/06/15 11:44:57;;;;;;;7.45;1.88;;;;;;;;;;5072046;28;20072;-72
2021/06/15 11:47:40;;;;;;;7.95;1.67;;;;;;;;;;5065580;28;20529;-72
2021/06/15 11:50:18;;;;;;;6.85;1.65;;;;;;;;;;5067741;28;20036;-72
2021/06/15 11:52:48;;;;;;;5.47;1.30;;;;;;;;;;5069576;28;20086;-73
2021/06/15 11:55:15;;;;;;;6.93;1.35;;;;;;;;;;5073728;28;20098;-74
2021/06/15 11:57:42;;;;;;;5.57;1.52;;;;;;;;;;5070591;28;20040;-73
2021/06/15 12:00:13;;;;;;;4.90;1.30;;;;;;;;;;5067957;28;20036;-72
2021/06/15 12:02:39;;;;;;;7.05;1.67;;;;;;;;;;5070447;28;20043;-72
2021/06/15 12:05:09;;;;;;;5.28;1.63;;;;;;;;;;5070552;28;20032;-72
2021/06/15 12:07:35;;;;;;;5.97;1.55;;;;;;;;;;5064271;28;20036;-75
2021/06/15 12:10:05;;;;;;;7.13;1.50;;;;;;;;;;5069012;28;20040;-72
2021/06/15 12:12:51;;;;;;;6.63;1.77;;;;;;;;;;5069750;28;20102;-73
2021/06/15 12:15:24;;;;;;;6.68;1.42;;;;;;;;;;5052622;28;20064;-72
2021/06/15 12:17:50;;;;;;;4.32;1.90;;;;;;;;;;5063982;28;20441;-72
2021/06/15 12:20:36;;;;;;;4.78;1.40;;;;;;;;;;5069420;28;20418;-72
2021/06/15 12:23:21;;;;;;;6.07;1.25;;;;;;;;;;5073287;28;20123;-72
2021/06/15 12:25:48;;;;;;;6.38;1.38;;;;;;;;;;5070339;28;20037;-75
2021/06/15 12:28:15;;;;;;;7.60;1.30;;;;;;;;;;5074776;28;20044;-72
2021/06/15 12:30:44;;;;;;;8.98;1.88;;;;;;;;;;5073804;28;20037;-72
2021/06/15 12:33:11;;;;;;;6.82;1.70;;;;;;;;;;5075430;28;20048;-72
2021/06/15 12:35:37;;;;;;;5.82;1.50;;;;;;;;;;5071453;28;20052;-74
2021/06/15 12:38:15;;;;;;;5.50;1.60;;;;;;;;;;5067585;28;20127;-72
2021/06/15 12:40:43;;;;;;;7.47;1.90;;;;;;;;;;5068588;28;20501;-72
2021/06/15 12:43:09;;;;;;;8.75;1.67;;;;;;;;;;5068124;28;20033;-72
2021/06/15 12:45:37;;;;;;;8.07;1.48;;;;;;;;;;5056940;28;20273;-72
2021/06/15 12:48:22;;;;;;;8.57;1.90;;;;;;;;;;5074737;28;20132;-72
2021/06/15 12:51:01;;;;;;;4.15;1.40;;;;;;;;;;5073531;28;20047;-72
2021/06/15 12:53:30;;;;;;;6.78;1.70;;;;;;;;;;5071437;28;20448;-72
2021/06/15 12:55:56;;;;;;;6.05;1.38;;;;;;;;;;5072539;28;20076;-73
2021/06/15 12:58:29;;;;;;;7.65;1.40;;;;;;;;;;5073581;28;20552;-72
2021/06/15 13:00:55;;;;;;;7.80;1.73;;;;;;;;;;5073462;28;20051;-72
2021/06/15 13:03:21;;;;;;;8.75;1.80;;;;;;;;;;5071697;28;20399;-70
2021/06/15 13:05:47;;;;;;;6.93;1.65;;;;;;;;;;5073191;28;20044;-72
2021/06/15 13:08:13;;;;;;;5.85;1.42;;;;;;;;;;5073673;28;20055;-71
2021/06/15 13:10:41;;;;;;;6.53;1.33;;;;;;;;;;5064463;28;20483;-71
2021/06/15 13:13:14;;;;;;;6.47;1.52;;;;;;;;;;5067316;28;20066;-71
2021/06/15 13:15:42;;;;;;;9.63;1.83;;;;;;;;;;5071930;28;20498;-71
2021/06/15 13:18:11;;;;;;;5.25;1.50;;;;;;;;;;5073015;28;20114;-71
2021/06/15 13:20:38;;;;;;;5.40;1.40;;;;;;;;;;5070059;28;20120;-71
2021/06/15 13:23:16;;;;;;;4.82;1.58;;;;;;;;;;5072788;28;20106;-71
2021/06/15 13:25:42;;;;;;;6.85;1.60;;;;;;;;;;5074079;28;20471;-71
2021/06/15 13:28:12;;;;;;;8.50;1.60;;;;;;;;;;5073894;28;20097;-71
2021/06/15 13:30:40;;;;;;;7.80;2.03;;;;;;;;;;5073158;28;20101;-71
2021/06/15 13:33:07;;;;;;;5.85;1.20;;;;;;;;;;5073476;28;20485;-71
2021/06/15 13:35:34;;;;;;;6.82;1.80;;;;;;;;;;5069627;28;20036;-71
2021/06/15 13:38:01;;;;;;;9.25;1.60;;;;;;;;;;5066621;28;20045;-71
2021/06/15 13:40:41;;;;;;;8.63;1.70;;;;;;;;;;5067082;28;20057;-71
2021/06/15 13:43:21;;;;;;;4.85;1.90;;;;;;;;;;5071079;28;20036;-72
2021/06/15 13:45:49;;;;;;;7.07;1.48;;;;;;;;;;5058107;28;20044;-71
2021/06/15 13:48:16;;;;;;;6.55;1.70;;;;;;;;;;5073397;28;20044;-71
2021/06/15 13:50:43;;;;;;;5.35;1.70;;;;;;;;;;5055879;28;20045;-71
2021/06/15 13:53:11;;;;;;;6.00;1.40;;;;;;;;;;5072311;28;20068;-71
2021/06/15 13:55:37;;;;;;;6.68;1.80;;;;;;;;;;5072957;28;20485;-71
2021/06/15 13:58:06;;;;;;;7.15;1.73;;;;;;;;;;5072231;28;20044;-71
2021/06/15 14:00:33;;;;;;;7.95;1.40;;;;;;;;;;5069313;28;20048;-71
2021/06/15 14:03:01;;;;;;;9.75;1.33;;;;;;;;;;5071922;28;20044;-69
2021/06/15 14:05:27;;;;;;;7.18;1.48;;;;;;;;;;5071676;28;20075;-71
2021/06/15 14:07:53;;;;;;;7.07;1.88;;;;;;;;;;5071668;28;20037;-69
2021/06/15 14:10:20;;;;;;;7.03;1.52;;;;;;;;;;5071676;28;20546;-69
2021/06/15 14:12:48;;;;;;;5.22;1.63;;;;;;;;;;5072078;28;20036;-71
2021/06/15 14:15:15;;;;;;;5.72;1.60;;;;;;;;;;5058431;28;20441;-71
2021/06/15 14:17:43;;;;;;;7.00;2.10;;;;;;;;;;5055657;28;20040;-71
2021/06/15 14:20:10;;;;;;;13.05;2.60;;;;;;;;;;5073329;28;20378;-71
2021/06/15 14:22:37;;;;;;;6.07;1.48;;;;;;;;;;5050944;28;20068;-71
2021/06/15 14:25:04;;;;;;;8.25;1.88;;;;;;;;;;5069807;28;20052;-71
2021/06/15 14:27:30;;;;;;;7.63;1.58;;;;;;;;;;5061391;28;20045;-71
2021/06/15 14:29:57;;;;;;;6.25;1.80;;;;;;;;;;5067723;28;20037;-70
2021/06/15 14:32:23;;;;;;;7.20;1.70;;;;;;;;;;5048961;28;20509;-71
2021/06/15 14:34:49;;;;;;;10.18;2.15;;;;;;;;;;5069920;28;20040;-71
2021/06/15 14:37:15;;;;;;;6.43;2.28;;;;;;;;;;5062455;28;20403;-71
2021/06/15 14:39:41;;;;;;;10.52;1.75;;;;;;;;;;5064518;28;20139;-70
2021/06/15 14:42:08;;;;;;;7.32;1.83;;;;;;;;;;5054465;28;20040;-72
2021/06/15 14:44:38;;;;;;;8.60;2.42;;;;;;;;;;5083147;28;20402;-70
2021/06/15 14:47:04;;;;;;;8.95;2.13;;;;;;;;;;5067553;28;20044;-71
2021/06/15 14:49:30;;;;;;;9.00;2.13;;;;;;;;;;5068025;28;20098;-71
2021/06/15 14:51:57;;;;;;;7.68;1.73;;;;;;;;;;5070670;28;20051;-74
2021/06/15 14:54:23;;;;;;;6.45;1.27;;;;;;;;;;5070123;28;20440;-71
2021/06/15 14:56:49;;;;;;;6.75;1.70;;;;;;;;;;5068202;28;20033;-72
2021/06/15 14:59:15;;;;;;;8.45;1.52;;;;;;;;;;5049906;28;20133;-71
2021/06/15 15:01:42;;;;;;;9.93;1.95;;;;;;;;;;5072332;28;20044;-71
2021/06/15 15:04:08;;;;;;;6.15;1.63;;;;;;;;;;5071114;28;20032;-71
2021/06/15 15:06:34;;;;;;;10.80;1.95;;;;;;;;;;5071757;28;20403;-71
2021/06/15 15:09:00;;;;;;;8.82;1.90;;;;;;;;;;5070510;28;20486;-71
2021/06/15 15:11:27;;;;;;;6.03;1.60;;;;;;;;;;5067844;28;20060;-71
2021/06/15 15:13:54;;;;;;;7.10;1.90;;;;;;;;;;5071321;28;20037;-71